Gorham, NH (03581)

2:24 AM EDT on April 26, 2017 (GMT -0400)
Gorham East | | Change Station

Elev 781 ft 44.39 °N, 71.16 °W | Updated 5 seconds ago

Light Rain
Light Rain Mist
44.6 °F
Feels Like 41 °F
N
6.5
Wind Variable Wind from ENE
Gusts 7.4 mph

Today
High -- | Low -- °F
--% Chance of Precip.
Yesterday
High -- | Low -- °F
Precip. -- in
Pressure 30.11 in
Visibility 6.0 miles
Clouds Few 500 ft
Overcast 2200 ft
Windchill 41 °F
Dew Point 44 °F
Humidity 97%
Rainfall 0.00 in
Snow Depth Not available.
5:42 AM 7:43 PM
Waning Crescent, 0% visible
SPECI KBML 260603Z AUTO 34003KT 6SM -RA BR FEW005 OVC022 06/04 A3011 RMK AO2 P0000 T00560039
Pressure 30.11 in
Visibility 6.0 miles
Clouds Few 500 ft
Overcast 2200 ft
Windchill 41 °F
Dew Point 44 °F
Humidity 97%
Rainfall 0.00 in
Snow Depth Not available.
5:42 AM 7:43 PM
Waning Crescent, 0% visible
SPECI KBML 260603Z AUTO 34003KT 6SM -RA BR FEW005 OVC022 06/04 A3011 RMK AO2 P0000 T00560039

Get Severe Weather Alerts

Thanks for signing up!

Be on the lookout for a verification email in your inbox.

You'll start receiving the daily forecast at 8 AM.

×

10-Day Weather Forecast

Almanac

Astronomy

Apr. 26, 2017 Rise Set
Actual Time
Civil Twilight
Nautical Twilight
Astronomical Twilight
Moon
Length of Visible Light
Length of Day
Tomorrow will be .
, % of the Moon is Illuminated

Today's Extremes

State Highs State Lows

Community

WunderPhotos

WunderBlog® & News

Nearby

Air Quality

  Air Quality AQ Index Pollutant
Not available.

Snow Depth

Station Depth Elevation

Earthquake Activity

City Distance Mag. Time & Date
Minimum magnitude displayed is 2.5.

Coastal Water Temperatures

Place Temperature

Stations

Nearby Weather Stations

Station Location Temp. Windchill Dew Point Humidity Wind Precip. Elev Updated Type
                   

Watches & Warnings

There are currently no watches in effect.